sensor_id;sensor_type;location;lat;lon;timestamp;temperature;humidity
7844;DHT22;3967;48.702;9.326;2023-12-20T00:02:10;6.10;99.90
7844;DHT22;3967;48.702;9.326;2023-12-20T00:04:36;6.20;99.90
7844;DHT22;3967;48.702;9.326;2023-12-20T00:07:03;6.20;99.90
7844;DHT22;3967;48.702;9.326;2023-12-20T00:09:30;6.20;99.90
7844;DHT22;3967;48.702;9.326;2023-12-20T00:11:57;6.20;99.90
7844;DHT22;3967;48.702;9.326;2023-12-20T00:14:24;6.20;99.90
7844;DHT22;3967;48.702;9.326;2023-12-20T00:16:50;6.20;99.90
7844;DHT22;3967;48.702;9.326;2023-12-20T00:19:17;6.20;99.90
7844;DHT22;3967;48.702;9.326;2023-12-20T00:21:44;6.30;99.90
7844;DHT22;3967;48.702;9.326;2023-12-20T00:24:11;6.30;99.90
7844;DHT22;3967;48.702;9.326;2023-12-20T00:26:37;6.40;99.90
7844;DHT22;3967;48.702;9.326;2023-12-20T00:29:04;6.40;99.90
7844;DHT22;3967;48.702;9.326;2023-12-20T00:31:31;6.40;99.90
7844;DHT22;3967;48.702;9.326;2023-12-20T00:33:57;6.50;99.90
7844;DHT22;3967;48.702;9.326;2023-12-20T00:36:24;6.60;99.90
7844;DHT22;3967;48.702;9.326;2023-12-20T00:38:51;6.60;99.90
7844;DHT22;3967;48.702;9.326;2023-12-20T00:41:18;6.50;99.90
7844;DHT22;3967;48.702;9.326;2023-12-20T00:43:45;6.50;99.90
7844;DHT22;3967;48.702;9.326;2023-12-20T00:46:11;6.50;99.90
7844;DHT22;3967;48.702;9.326;2023-12-20T00:48:38;6.50;99.90
7844;DHT22;3967;48.702;9.326;2023-12-20T00:51:06;6.50;99.90
7844;DHT22;3967;48.702;9.326;2023-12-20T00:53:33;6.40;99.90
7844;DHT22;3967;48.702;9.326;2023-12-20T00:55:59;6.40;99.90
7844;DHT22;3967;48.702;9.326;2023-12-20T00:58:26;6.50;99.90
7844;DHT22;3967;48.702;9.326;2023-12-20T01:00:54;6.40;99.90
7844;DHT22;3967;48.702;9.326;2023-12-20T01:03:21;6.30;99.90
7844;DHT22;3967;48.702;9.326;2023-12-20T01:05:48;6.30;99.90
7844;DHT22;3967;48.702;9.326;2023-12-20T01:08:14;6.40;99.90
7844;DHT22;3967;48.702;9.326;2023-12-20T01:10:41;6.30;99.90
7844;DHT22;3967;48.702;9.326;2023-12-20T01:13:08;6.30;99.90
7844;DHT22;3967;48.702;9.326;2023-12-20T01:15:35;6.40;99.90
7844;DHT22;3967;48.702;9.326;2023-12-20T01:18:02;6.40;99.90
7844;DHT22;3967;48.702;9.326;2023-12-20T01:20:29;6.40;99.90
7844;DHT22;3967;48.702;9.326;2023-12-20T01:22:55;6.40;99.90
7844;DHT22;3967;48.702;9.326;2023-12-20T01:25:22;6.30;99.90
7844;DHT22;3967;48.702;9.326;2023-12-20T01:27:49;6.30;99.90
7844;DHT22;3967;48.702;9.326;2023-12-20T01:30:16;6.30;99.90
7844;DHT22;3967;48.702;9.326;2023-12-20T01:32:43;6.30;99.90
7844;DHT22;3967;48.702;9.326;2023-12-20T01:35:10;6.30;99.90
7844;DHT22;3967;48.702;9.326;2023-12-20T01:37:39;6.20;99.90
7844;DHT22;3967;48.702;9.326;2023-12-20T01:40:06;6.20;99.90
7844;DHT22;3967;48.702;9.326;2023-12-20T01:42:33;6.20;99.90
7844;DHT22;3967;48.702;9.326;2023-12-20T01:44:59;6.20;99.90
7844;DHT22;3967;48.702;9.326;2023-12-20T01:47:26;6.20;99.90
7844;DHT22;3967;48.702;9.326;2023-12-20T01:49:54;6.20;99.90
7844;DHT22;3967;48.702;9.326;2023-12-20T01:52:24;6.20;99.90
7844;DHT22;3967;48.702;9.326;2023-12-20T01:54:52;6.20;99.90
7844;DHT22;3967;48.702;9.326;2023-12-20T01:57:21;6.20;99.90
7844;DHT22;3967;48.702;9.326;2023-12-20T01:59:48;6.20;99.90
7844;DHT22;3967;48.702;9.326;2023-12-20T02:02:14;6.20;99.90
7844;DHT22;3967;48.702;9.326;2023-12-20T02:04:41;6.10;99.90
7844;DHT22;3967;48.702;9.326;2023-12-20T02:07:08;6.10;99.90
7844;DHT22;3967;48.702;9.326;2023-12-20T02:09:36;6.20;99.90
7844;DHT22;3967;48.702;9.326;2023-12-20T02:12:05;6.20;99.90
7844;DHT22;3967;48.702;9.326;2023-12-20T02:14:32;6.20;99.90
7844;DHT22;3967;48.702;9.326;2023-12-20T02:16:59;6.30;99.90
7844;DHT22;3967;48.702;9.326;2023-12-20T02:19:25;6.30;99.90
7844;DHT22;3967;48.702;9.326;2023-12-20T02:22:13;6.20;99.90
7844;DHT22;3967;48.702;9.326;2023-12-20T02:24:41;6.30;99.90
7844;DHT22;3967;48.702;9.326;2023-12-20T02:27:07;6.30;99.90
7844;DHT22;3967;48.702;9.326;2023-12-20T02:29:35;6.20;99.90
7844;DHT22;3967;48.702;9.326;2023-12-20T02:32:02;6.30;99.90
7844;DHT22;3967;48.702;9.326;2023-12-20T02:34:29;6.20;99.90
7844;DHT22;3967;48.702;9.326;2023-12-20T02:36:56;6.20;99.90
7844;DHT22;3967;48.702;9.326;2023-12-20T02:39:23;6.20;99.90
7844;DHT22;3967;48.702;9.326;2023-12-20T02:41:50;6.20;99.90
7844;DHT22;3967;48.702;9.326;2023-12-20T02:44:16;6.10;99.90
7844;DHT22;3967;48.702;9.326;2023-12-20T02:46:43;6.20;99.90
7844;DHT22;3967;48.702;9.326;2023-12-20T02:49:10;6.20;99.90
7844;DHT22;3967;48.702;9.326;2023-12-20T02:51:37;6.10;99.90
7844;DHT22;3967;48.702;9.326;2023-12-20T02:54:07;6.10;99.90
7844;DHT22;3967;48.702;9.326;2023-12-20T02:56:34;6.10;99.90
7844;DHT22;3967;48.702;9.326;2023-12-20T02:59:01;6.10;99.90
7844;DHT22;3967;48.702;9.326;2023-12-20T03:01:29;6.20;99.90
7844;DHT22;3967;48.702;9.326;2023-12-20T03:03:56;6.20;99.90
7844;DHT22;3967;48.702;9.326;2023-12-20T03:06:23;6.20;99.90
7844;DHT22;3967;48.702;9.326;2023-12-20T03:08:51;6.30;99.90
7844;DHT22;3967;48.702;9.326;2023-12-20T03:11:17;6.20;99.90
7844;DHT22;3967;48.702;9.326;2023-12-20T03:13:44;6.20;99.90
7844;DHT22;3967;48.702;9.326;2023-12-20T03:16:12;6.30;99.90
7844;DHT22;3967;48.702;9.326;2023-12-20T03:18:39;6.30;99.90
7844;DHT22;3967;48.702;9.326;2023-12-20T03:21:06;6.20;99.90
7844;DHT22;3967;48.702;9.326;2023-12-20T03:23:33;6.20;99.90
7844;DHT22;3967;48.702;9.326;2023-12-20T03:26:00;6.20;99.90
7844;DHT22;3967;48.702;9.326;2023-12-20T03:28:27;6.20;99.90
7844;DHT22;3967;48.702;9.326;2023-12-20T03:30:54;6.20;99.90
7844;DHT22;3967;48.702;9.326;2023-12-20T03:33:21;6.20;99.90
7844;DHT22;3967;48.702;9.326;2023-12-20T03:35:48;6.20;99.90
7844;DHT22;3967;48.702;9.326;2023-12-20T03:38:14;6.10;99.90
7844;DHT22;3967;48.702;9.326;2023-12-20T03:40:41;6.20;99.90
7844;DHT22;3967;48.702;9.326;2023-12-20T03:43:08;6.10;99.90
7844;DHT22;3967;48.702;9.326;2023-12-20T03:45:35;6.20;99.90
7844;DHT22;3967;48.702;9.326;2023-12-20T03:48:01;6.30;99.90
7844;DHT22;3967;48.702;9.326;2023-12-20T03:50:29;6.20;99.90
7844;DHT22;3967;48.702;9.326;2023-12-20T03:52:55;6.20;99.90
7844;DHT22;3967;48.702;9.326;2023-12-20T03:55:22;6.20;99.90
7844;DHT22;3967;48.702;9.326;2023-12-20T03:57:49;6.30;99.90
7844;DHT22;3967;48.702;9.326;2023-12-20T04:00:16;6.30;99.90
7844;DHT22;3967;48.702;9.326;2023-12-20T04:02:43;6.30;99.90
7844;DHT22;3967;48.702;9.326;2023-12-20T04:05:10;6.20;99.90
7844;DHT22;3967;48.702;9.326;2023-12-20T04:07:37;6.20;99.90
7844;DHT22;3967;48.702;9.326;2023-12-20T04:10:05;6.20;99.90
7844;DHT22;3967;48.702;9.326;2023-12-20T04:12:32;6.30;99.90
7844;DHT22;3967;48.702;9.326;2023-12-20T04:14:59;6.20;99.90
7844;DHT22;3967;48.702;9.326;2023-12-20T04:17:26;6.20;99.90
7844;DHT22;3967;48.702;9.326;2023-12-20T04:19:52;6.20;99.90
7844;DHT22;3967;48.702;9.326;2023-12-20T04:22:19;6.20;99.90
7844;DHT22;3967;48.702;9.326;2023-12-20T04:24:46;6.20;99.90
7844;DHT22;3967;48.702;9.326;2023-12-20T04:27:13;6.20;99.90
7844;DHT22;3967;48.702;9.326;2023-12-20T04:29:40;6.20;99.90
7844;DHT22;3967;48.702;9.326;2023-12-20T04:32:06;6.30;99.90
7844;DHT22;3967;48.702;9.326;2023-12-20T04:34:33;6.20;99.90
7844;DHT22;3967;48.702;9.326;2023-12-20T04:37:00;6.30;99.90
7844;DHT22;3967;48.702;9.326;2023-12-20T04:39:28;6.20;99.90
7844;DHT22;3967;48.702;9.326;2023-12-20T04:41:55;6.20;99.90
7844;DHT22;3967;48.702;9.326;2023-12-20T04:44:21;6.30;99.90
7844;DHT22;3967;48.702;9.326;2023-12-20T04:46:48;6.20;99.90
7844;DHT22;3967;48.702;9.326;2023-12-20T04:49:15;6.20;99.90
7844;DHT22;3967;48.702;9.326;2023-12-20T04:51:42;6.20;99.90
7844;DHT22;3967;48.702;9.326;2023-12-20T04:54:08;6.20;99.90
7844;DHT22;3967;48.702;9.326;2023-12-20T04:56:36;6.30;99.90
7844;DHT22;3967;48.702;9.326;2023-12-20T04:59:03;6.20;99.90
7844;DHT22;3967;48.702;9.326;2023-12-20T05:01:29;6.20;99.90
7844;DHT22;3967;48.702;9.326;2023-12-20T05:03:56;6.20;99.90
7844;DHT22;3967;48.702;9.326;2023-12-20T05:06:23;6.20;99.90
7844;DHT22;3967;48.702;9.326;2023-12-20T05:08:51;6.20;99.90
7844;DHT22;3967;48.702;9.326;2023-12-20T05:11:18;6.30;99.90
7844;DHT22;3967;48.702;9.326;2023-12-20T05:13:44;6.30;99.90
7844;DHT22;3967;48.702;9.326;2023-12-20T05:16:16;6.30;99.90
7844;DHT22;3967;48.702;9.326;2023-12-20T05:18:45;6.20;99.90
7844;DHT22;3967;48.702;9.326;2023-12-20T05:21:12;6.20;99.90
7844;DHT22;3967;48.702;9.326;2023-12-20T05:23:39;6.20;99.90
7844;DHT22;3967;48.702;9.326;2023-12-20T05:26:05;6.20;99.90
7844;DHT22;3967;48.702;9.326;2023-12-20T05:28:32;6.20;99.90
7844;DHT22;3967;48.702;9.326;2023-12-20T05:30:59;6.20;99.90
7844;DHT22;3967;48.702;9.326;2023-12-20T05:33:26;6.20;99.90
7844;DHT22;3967;48.702;9.326;2023-12-20T05:35:53;6.20;99.90
7844;DHT22;3967;48.702;9.326;2023-12-20T05:38:20;6.20;99.90
7844;DHT22;3967;48.702;9.326;2023-12-20T05:40:46;6.20;99.90
7844;DHT22;3967;48.702;9.326;2023-12-20T05:43:13;6.20;99.90
7844;DHT22;3967;48.702;9.326;2023-12-20T05:45:40;6.20;99.90
7844;DHT22;3967;48.702;9.326;2023-12-20T05:48:07;6.20;99.90
7844;DHT22;3967;48.702;9.326;2023-12-20T05:50:34;6.20;99.90
7844;DHT22;3967;48.702;9.326;2023-12-20T05:53:01;6.20;99.90
7844;DHT22;3967;48.702;9.326;2023-12-20T05:55:28;6.20;99.90
7844;DHT22;3967;48.702;9.326;2023-12-20T05:57:54;6.20;99.90
7844;DHT22;3967;48.702;9.326;2023-12-20T06:00:22;6.10;99.90
7844;DHT22;3967;48.702;9.326;2023-12-20T06:02:49;6.10;99.90
7844;DHT22;3967;48.702;9.326;2023-12-20T06:05:16;6.00;99.90
7844;DHT22;3967;48.702;9.326;2023-12-20T06:07:42;6.00;99.90
7844;DHT22;3967;48.702;9.326;2023-12-20T06:10:10;6.00;99.90
7844;DHT22;3967;48.702;9.326;2023-12-20T06:12:37;6.00;99.90
7844;DHT22;3967;48.702;9.326;2023-12-20T06:15:03;5.90;99.90
7844;DHT22;3967;48.702;9.326;2023-12-20T06:17:30;5.90;99.90
7844;DHT22;3967;48.702;9.326;2023-12-20T06:19:57;5.80;99.90
7844;DHT22;3967;48.702;9.326;2023-12-20T06:22:25;5.80;99.90
7844;DHT22;3967;48.702;9.326;2023-12-20T06:24:51;6.10;99.90
7844;DHT22;3967;48.702;9.326;2023-12-20T06:27:18;6.00;99.90
7844;DHT22;3967;48.702;9.326;2023-12-20T06:29:45;6.00;99.90
7844;DHT22;3967;48.702;9.326;2023-12-20T06:32:12;5.90;99.90
7844;DHT22;3967;48.702;9.326;2023-12-20T06:34:38;5.90;99.90
7844;DHT22;3967;48.702;9.326;2023-12-20T06:37:05;5.80;99.90
7844;DHT22;3967;48.702;9.326;2023-12-20T06:39:32;5.80;99.90
7844;DHT22;3967;48.702;9.326;2023-12-20T06:42:00;5.80;99.90
7844;DHT22;3967;48.702;9.326;2023-12-20T06:44:27;5.90;99.90
7844;DHT22;3967;48.702;9.326;2023-12-20T06:46:54;5.80;99.90
7844;DHT22;3967;48.702;9.326;2023-12-20T06:49:20;5.80;99.90
7844;DHT22;3967;48.702;9.326;2023-12-20T06:51:47;5.80;99.90
7844;DHT22;3967;48.702;9.326;2023-12-20T06:54:14;5.80;99.90
7844;DHT22;3967;48.702;9.326;2023-12-20T06:56:41;5.70;99.90
7844;DHT22;3967;48.702;9.326;2023-12-20T06:59:07;5.70;99.90
7844;DHT22;3967;48.702;9.326;2023-12-20T07:01:34;5.70;99.90
7844;DHT22;3967;48.702;9.326;2023-12-20T07:04:01;5.70;99.90
7844;DHT22;3967;48.702;9.326;2023-12-20T07:06:27;5.80;99.90
7844;DHT22;3967;48.702;9.326;2023-12-20T07:08:54;5.80;99.90
7844;DHT22;3967;48.702;9.326;2023-12-20T07:11:21;5.80;99.90
7844;DHT22;3967;48.702;9.326;2023-12-20T07:13:48;5.70;99.90
7844;DHT22;3967;48.702;9.326;2023-12-20T07:16:16;5.70;99.90
7844;DHT22;3967;48.702;9.326;2023-12-20T07:18:42;5.80;99.90
7844;DHT22;3967;48.702;9.326;2023-12-20T07:21:09;5.90;99.90
7844;DHT22;3967;48.702;9.326;2023-12-20T07:23:36;5.80;99.90
7844;DHT22;3967;48.702;9.326;2023-12-20T07:26:03;5.80;99.90
7844;DHT22;3967;48.702;9.326;2023-12-20T07:28:30;5.90;99.90
7844;DHT22;3967;48.702;9.326;2023-12-20T07:30:57;5.90;99.90
7844;DHT22;3967;48.702;9.326;2023-12-20T07:33:24;5.90;99.90
7844;DHT22;3967;48.702;9.326;2023-12-20T07:35:51;5.80;99.90
7844;DHT22;3967;48.702;9.326;2023-12-20T07:38:18;5.90;99.90
7844;DHT22;3967;48.702;9.326;2023-12-20T07:40:45;5.90;99.90
7844;DHT22;3967;48.702;9.326;2023-12-20T07:43:11;5.90;99.90
7844;DHT22;3967;48.702;9.326;2023-12-20T07:45:38;5.90;99.90
7844;DHT22;3967;48.702;9.326;2023-12-20T07:48:06;5.90;99.90
7844;DHT22;3967;48.702;9.326;2023-12-20T07:50:33;5.80;99.90
7844;DHT22;3967;48.702;9.326;2023-12-20T07:53:00;5.80;99.90
7844;DHT22;3967;48.702;9.326;2023-12-20T07:55:27;5.70;99.90
7844;DHT22;3967;48.702;9.326;2023-12-20T07:57:54;5.70;99.90
7844;DHT22;3967;48.702;9.326;2023-12-20T08:00:21;5.60;99.90
7844;DHT22;3967;48.702;9.326;2023-12-20T08:02:48;5.60;99.90
7844;DHT22;3967;48.702;9.326;2023-12-20T08:05:14;5.70;99.90
7844;DHT22;3967;48.702;9.326;2023-12-20T08:07:43;5.70;99.90
7844;DHT22;3967;48.702;9.326;2023-12-20T08:10:10;5.60;99.90
7844;DHT22;3967;48.702;9.326;2023-12-20T08:12:37;5.60;99.90
7844;DHT22;3967;48.702;9.326;2023-12-20T08:15:06;5.60;99.90
7844;DHT22;3967;48.702;9.326;2023-12-20T08:17:33;5.60;99.90
7844;DHT22;3967;48.702;9.326;2023-12-20T08:20:00;5.70;99.90
7844;DHT22;3967;48.702;9.326;2023-12-20T08:22:27;5.70;99.90
7844;DHT22;3967;48.702;9.326;2023-12-20T08:24:54;5.60;99.90
7844;DHT22;3967;48.702;9.326;2023-12-20T08:27:20;5.60;99.90
7844;DHT22;3967;48.702;9.326;2023-12-20T08:29:47;5.60;99.90
7844;DHT22;3967;48.702;9.326;2023-12-20T08:32:16;5.60;99.90
7844;DHT22;3967;48.702;9.326;2023-12-20T08:34:42;5.70;99.90
7844;DHT22;3967;48.702;9.326;2023-12-20T08:37:09;5.70;99.90
7844;DHT22;3967;48.702;9.326;2023-12-20T08:39:36;5.70;99.90
7844;DHT22;3967;48.702;9.326;2023-12-20T08:42:03;5.80;99.90
7844;DHT22;3967;48.702;9.326;2023-12-20T08:44:30;5.80;99.90
7844;DHT22;3967;48.702;9.326;2023-12-20T08:46:56;5.80;99.90
7844;DHT22;3967;48.702;9.326;2023-12-20T08:49:23;5.80;99.90
7844;DHT22;3967;48.702;9.326;2023-12-20T08:51:52;5.80;99.90
7844;DHT22;3967;48.702;9.326;2023-12-20T08:54:19;5.80;99.90
7844;DHT22;3967;48.702;9.326;2023-12-20T08:56:46;5.70;99.90
7844;DHT22;3967;48.702;9.326;2023-12-20T08:59:12;5.60;99.90
7844;DHT22;3967;48.702;9.326;2023-12-20T09:01:39;5.60;99.90
7844;DHT22;3967;48.702;9.326;2023-12-20T09:04:06;5.60;99.90
7844;DHT22;3967;48.702;9.326;2023-12-20T09:06:33;5.60;99.90
7844;DHT22;3967;48.702;9.326;2023-12-20T09:09:00;5.60;99.90
7844;DHT22;3967;48.702;9.326;2023-12-20T09:11:26;5.70;99.90
7844;DHT22;3967;48.702;9.326;2023-12-20T09:13:53;5.60;99.90
7844;DHT22;3967;48.702;9.326;2023-12-20T09:16:20;5.60;99.90
7844;DHT22;3967;48.702;9.326;2023-12-20T09:18:47;5.70;99.90
7844;DHT22;3967;48.702;9.326;2023-12-20T09:21:14;5.80;99.90
7844;DHT22;3967;48.702;9.326;2023-12-20T09:23:41;5.70;99.90
7844;DHT22;3967;48.702;9.326;2023-12-20T09:26:08;5.70;99.90
7844;DHT22;3967;48.702;9.326;2023-12-20T09:28:34;5.70;99.90
7844;DHT22;3967;48.702;9.326;2023-12-20T09:31:04;5.70;99.90
7844;DHT22;3967;48.702;9.326;2023-12-20T09:33:33;5.70;99.90
7844;DHT22;3967;48.702;9.326;2023-12-20T09:36:00;5.70;99.90
7844;DHT22;3967;48.702;9.326;2023-12-20T09:38:27;5.60;99.90
7844;DHT22;3967;48.702;9.326;2023-12-20T09:40:54;5.70;99.90
7844;DHT22;3967;48.702;9.326;2023-12-20T09:43:24;5.70;99.90
7844;DHT22;3967;48.702;9.326;2023-12-20T09:45:53;5.80;99.90
7844;DHT22;3967;48.702;9.326;2023-12-20T09:48:20;5.90;99.90
7844;DHT22;3967;48.702;9.326;2023-12-20T09:50:47;5.80;99.90
7844;DHT22;3967;48.702;9.326;2023-12-20T09:53:20;5.90;99.90
7844;DHT22;3967;48.702;9.326;2023-12-20T09:55:47;5.90;99.90
7844;DHT22;3967;48.702;9.326;2023-12-20T09:58:15;5.90;99.90
7844;DHT22;3967;48.702;9.326;2023-12-20T10:00:42;6.00;99.90
7844;DHT22;3967;48.702;9.326;2023-12-20T10:03:09;6.00;99.90
7844;DHT22;3967;48.702;9.326;2023-12-20T10:05:39;6.10;99.90
7844;DHT22;3967;48.702;9.326;2023-12-20T10:08:06;6.10;99.90
7844;DHT22;3967;48.702;9.326;2023-12-20T10:10:33;6.20;99.90
7844;DHT22;3967;48.702;9.326;2023-12-20T10:13:12;6.30;99.90
7844;DHT22;3967;48.702;9.326;2023-12-20T10:15:40;6.30;99.90
7844;DHT22;3967;48.702;9.326;2023-12-20T10:18:08;6.30;99.90
7844;DHT22;3967;48.702;9.326;2023-12-20T10:20:36;6.30;99.90
7844;DHT22;3967;48.702;9.326;2023-12-20T10:23:03;6.30;99.90
7844;DHT22;3967;48.702;9.326;2023-12-20T10:25:30;6.20;99.90
7844;DHT22;3967;48.702;9.326;2023-12-20T10:28:15;6.20;99.90
7844;DHT22;3967;48.702;9.326;2023-12-20T10:30:46;6.20;99.90
7844;DHT22;3967;48.702;9.326;2023-12-20T10:33:14;6.30;99.90
7844;DHT22;3967;48.702;9.326;2023-12-20T10:35:49;6.50;99.90
7844;DHT22;3967;48.702;9.326;2023-12-20T10:38:16;6.40;99.90
7844;DHT22;3967;48.702;9.326;2023-12-20T10:40:45;6.30;99.90
7844;DHT22;3967;48.702;9.326;2023-12-20T10:43:12;6.40;99.80
7844;DHT22;3967;48.702;9.326;2023-12-20T10:45:42;6.40;98.90
7844;DHT22;3967;48.702;9.326;2023-12-20T10:48:10;6.50;98.20
7844;DHT22;3967;48.702;9.326;2023-12-20T10:50:39;6.60;99.10
7844;DHT22;3967;48.702;9.326;2023-12-20T10:53:07;6.80;98.60
7844;DHT22;3967;48.702;9.326;2023-12-20T10:55:34;6.70;97.70
7844;DHT22;3967;48.702;9.326;2023-12-20T10:58:04;6.60;98.30
7844;DHT22;3967;48.702;9.326;2023-12-20T11:00:43;6.60;97.80
7844;DHT22;3967;48.702;9.326;2023-12-20T11:03:12;6.50;98.00
7844;DHT22;3967;48.702;9.326;2023-12-20T11:08:25;6.70;97.80
7844;DHT22;3967;48.702;9.326;2023-12-20T11:11:14;6.80;98.60
7844;DHT22;3967;48.702;9.326;2023-12-20T11:14:05;6.90;98.20
7844;DHT22;3967;48.702;9.326;2023-12-20T11:16:38;6.90;97.50
7844;DHT22;3967;48.702;9.326;2023-12-20T11:19:17;6.90;98.10
7844;DHT22;3967;48.702;9.326;2023-12-20T11:21:46;6.80;96.70
7844;DHT22;3967;48.702;9.326;2023-12-20T11:24:13;6.90;96.50
7844;DHT22;3967;48.702;9.326;2023-12-20T11:26:47;6.80;96.50
7844;DHT22;3967;48.702;9.326;2023-12-20T11:29:30;6.80;96.10
7844;DHT22;3967;48.702;9.326;2023-12-20T11:32:00;6.80;96.00
7844;DHT22;3967;48.702;9.326;2023-12-20T11:34:29;6.80;96.00
7844;DHT22;3967;48.702;9.326;2023-12-20T11:36:59;6.90;96.10
7844;DHT22;3967;48.702;9.326;2023-12-20T11:39:27;6.80;95.60
7844;DHT22;3967;48.702;9.326;2023-12-20T11:41:56;6.70;95.70
7844;DHT22;3967;48.702;9.326;2023-12-20T11:44:27;6.70;95.50
7844;DHT22;3967;48.702;9.326;2023-12-20T11:46:56;6.70;95.90
7844;DHT22;3967;48.702;9.326;2023-12-20T11:49:24;6.60;95.50
7844;DHT22;3967;48.702;9.326;2023-12-20T11:51:51;6.70;95.80
7844;DHT22;3967;48.702;9.326;2023-12-20T11:54:18;6.70;96.10
7844;DHT22;3967;48.702;9.326;2023-12-20T11:56:46;6.60;95.80
7844;DHT22;3967;48.702;9.326;2023-12-20T11:59:14;6.60;95.70
7844;DHT22;3967;48.702;9.326;2023-12-20T12:01:51;6.80;95.80
7844;DHT22;3967;48.702;9.326;2023-12-20T12:04:18;6.80;95.70
7844;DHT22;3967;48.702;9.326;2023-12-20T12:06:46;6.80;95.20
7844;DHT22;3967;48.702;9.326;2023-12-20T12:09:13;6.70;95.00
7844;DHT22;3967;48.702;9.326;2023-12-20T12:11:40;6.80;94.60
7844;DHT22;3967;48.702;9.326;2023-12-20T12:14:07;6.70;94.20
7844;DHT22;3967;48.702;9.326;2023-12-20T12:16:34;6.60;93.90
7844;DHT22;3967;48.702;9.326;2023-12-20T12:19:01;6.60;93.70
7844;DHT22;3967;48.702;9.326;2023-12-20T12:21:28;6.60;93.40
7844;DHT22;3967;48.702;9.326;2023-12-20T12:24:09;6.50;93.30
7844;DHT22;3967;48.702;9.326;2023-12-20T12:26:36;6.50;93.40
7844;DHT22;3967;48.702;9.326;2023-12-20T12:29:07;6.50;93.20
7844;DHT22;3967;48.702;9.326;2023-12-20T12:31:36;6.50;93.30
7844;DHT22;3967;48.702;9.326;2023-12-20T12:34:03;6.50;93.30
7844;DHT22;3967;48.702;9.326;2023-12-20T12:36:30;6.50;93.50
7844;DHT22;3967;48.702;9.326;2023-12-20T12:38:57;6.60;93.80
7844;DHT22;3967;48.702;9.326;2023-12-20T12:41:24;6.70;93.60
7844;DHT22;3967;48.702;9.326;2023-12-20T12:43:51;6.70;93.80
7844;DHT22;3967;48.702;9.326;2023-12-20T12:46:18;6.60;93.60
7844;DHT22;3967;48.702;9.326;2023-12-20T12:48:45;6.60;93.60
7844;DHT22;3967;48.702;9.326;2023-12-20T12:51:13;6.70;93.80
7844;DHT22;3967;48.702;9.326;2023-12-20T12:53:40;6.70;93.40
7844;DHT22;3967;48.702;9.326;2023-12-20T12:56:07;6.80;93.30
7844;DHT22;3967;48.702;9.326;2023-12-20T12:58:34;6.70;93.30
7844;DHT22;3967;48.702;9.326;2023-12-20T13:01:01;6.60;93.10
7844;DHT22;3967;48.702;9.326;2023-12-20T13:03:30;6.70;93.10
7844;DHT22;3967;48.702;9.326;2023-12-20T13:05:57;6.60;92.40
7844;DHT22;3967;48.702;9.326;2023-12-20T13:08:24;6.60;92.30
7844;DHT22;3967;48.702;9.326;2023-12-20T13:10:51;6.60;92.80
7844;DHT22;3967;48.702;9.326;2023-12-20T13:13:17;6.60;92.50
7844;DHT22;3967;48.702;9.326;2023-12-20T13:15:44;6.60;92.50
7844;DHT22;3967;48.702;9.326;2023-12-20T13:18:19;6.60;92.60
7844;DHT22;3967;48.702;9.326;2023-12-20T13:20:46;6.60;92.50
7844;DHT22;3967;48.702;9.326;2023-12-20T13:23:13;6.60;92.80
7844;DHT22;3967;48.702;9.326;2023-12-20T13:25:41;6.60;93.00
7844;DHT22;3967;48.702;9.326;2023-12-20T13:28:08;6.60;93.40
7844;DHT22;3967;48.702;9.326;2023-12-20T13:30:35;6.60;93.00
7844;DHT22;3967;48.702;9.326;2023-12-20T13:33:02;6.70;93.30
7844;DHT22;3967;48.702;9.326;2023-12-20T13:35:29;6.80;93.20
7844;DHT22;3967;48.702;9.326;2023-12-20T13:37:56;6.90;92.90
7844;DHT22;3967;48.702;9.326;2023-12-20T13:40:23;6.70;92.90
7844;DHT22;3967;48.702;9.326;2023-12-20T13:42:50;6.80;92.90
7844;DHT22;3967;48.702;9.326;2023-12-20T13:45:17;6.80;93.00
7844;DHT22;3967;48.702;9.326;2023-12-20T13:47:44;6.80;93.20
7844;DHT22;3967;48.702;9.326;2023-12-20T13:50:11;7.00;93.10
7844;DHT22;3967;48.702;9.326;2023-12-20T13:52:39;6.90;92.70
7844;DHT22;3967;48.702;9.326;2023-12-20T13:55:06;7.00;93.20
7844;DHT22;3967;48.702;9.326;2023-12-20T13:57:35;7.00;92.90
7844;DHT22;3967;48.702;9.326;2023-12-20T14:00:20;6.90;92.90
7844;DHT22;3967;48.702;9.326;2023-12-20T14:02:47;7.00;93.20
7844;DHT22;3967;48.702;9.326;2023-12-20T14:05:14;7.00;93.10
7844;DHT22;3967;48.702;9.326;2023-12-20T14:07:44;7.00;92.90
7844;DHT22;3967;48.702;9.326;2023-12-20T14:10:13;6.70;92.90
7844;DHT22;3967;48.702;9.326;2023-12-20T14:12:40;6.70;92.90
7844;DHT22;3967;48.702;9.326;2023-12-20T14:15:07;6.70;92.90
7844;DHT22;3967;48.702;9.326;2023-12-20T14:17:41;6.80;92.90
7844;DHT22;3967;48.702;9.326;2023-12-20T14:20:11;6.90;93.00
7844;DHT22;3967;48.702;9.326;2023-12-20T14:22:41;6.80;93.00
7844;DHT22;3967;48.702;9.326;2023-12-20T14:25:12;6.70;92.60
7844;DHT22;3967;48.702;9.326;2023-12-20T14:27:41;6.80;92.80
7844;DHT22;3967;48.702;9.326;2023-12-20T14:30:11;6.80;92.90
7844;DHT22;3967;48.702;9.326;2023-12-20T14:32:41;6.60;92.90
7844;DHT22;3967;48.702;9.326;2023-12-20T14:35:08;6.50;93.40
7844;DHT22;3967;48.702;9.326;2023-12-20T14:37:36;6.50;93.80
7844;DHT22;3967;48.702;9.326;2023-12-20T14:40:08;6.50;93.70
7844;DHT22;3967;48.702;9.326;2023-12-20T14:42:43;6.80;94.60
7844;DHT22;3967;48.702;9.326;2023-12-20T14:45:10;6.70;94.00
7844;DHT22;3967;48.702;9.326;2023-12-20T14:47:37;6.70;94.20
7844;DHT22;3967;48.702;9.326;2023-12-20T14:50:05;6.70;93.80
7844;DHT22;3967;48.702;9.326;2023-12-20T14:52:33;6.60;94.40
7844;DHT22;3967;48.702;9.326;2023-12-20T14:55:04;6.70;95.00
7844;DHT22;3967;48.702;9.326;2023-12-20T14:57:31;6.90;95.00
7844;DHT22;3967;48.702;9.326;2023-12-20T14:59:58;7.00;94.60
7844;DHT22;3967;48.702;9.326;2023-12-20T15:02:25;6.90;94.90
7844;DHT22;3967;48.702;9.326;2023-12-20T15:04:51;7.00;94.80
7844;DHT22;3967;48.702;9.326;2023-12-20T15:07:19;7.00;95.20
7844;DHT22;3967;48.702;9.326;2023-12-20T15:09:46;7.00;95.40
7844;DHT22;3967;48.702;9.326;2023-12-20T15:12:14;7.10;96.00
7844;DHT22;3967;48.702;9.326;2023-12-20T15:14:41;7.10;95.60
7844;DHT22;3967;48.702;9.326;2023-12-20T15:17:08;7.10;95.90
7844;DHT22;3967;48.702;9.326;2023-12-20T15:19:35;7.20;96.10
7844;DHT22;3967;48.702;9.326;2023-12-20T15:22:03;7.10;96.20
7844;DHT22;3967;48.702;9.326;2023-12-20T15:24:30;7.10;96.30
7844;DHT22;3967;48.702;9.326;2023-12-20T15:27:06;7.10;96.00
7844;DHT22;3967;48.702;9.326;2023-12-20T15:29:33;7.00;96.10
7844;DHT22;3967;48.702;9.326;2023-12-20T15:32:00;6.80;97.00
7844;DHT22;3967;48.702;9.326;2023-12-20T15:34:27;6.90;97.40
7844;DHT22;3967;48.702;9.326;2023-12-20T15:36:54;6.50;96.80
7844;DHT22;3967;48.702;9.326;2023-12-20T15:39:22;6.40;97.50
7844;DHT22;3967;48.702;9.326;2023-12-20T15:41:48;6.40;98.30
7844;DHT22;3967;48.702;9.326;2023-12-20T15:44:15;6.60;99.10
7844;DHT22;3967;48.702;9.326;2023-12-20T15:46:42;6.60;98.10
7844;DHT22;3967;48.702;9.326;2023-12-20T15:49:09;6.80;98.80
7844;DHT22;3967;48.702;9.326;2023-12-20T15:51:39;6.70;98.80
7844;DHT22;3967;48.702;9.326;2023-12-20T15:54:06;6.50;98.60
7844;DHT22;3967;48.702;9.326;2023-12-20T15:56:34;6.60;99.00
7844;DHT22;3967;48.702;9.326;2023-12-20T15:59:03;6.60;98.60
7844;DHT22;3967;48.702;9.326;2023-12-20T16:01:30;6.50;98.30
7844;DHT22;3967;48.702;9.326;2023-12-20T16:03:58;6.40;99.00
7844;DHT22;3967;48.702;9.326;2023-12-20T16:06:26;6.40;98.70
7844;DHT22;3967;48.702;9.326;2023-12-20T16:08:53;6.50;98.70
7844;DHT22;3967;48.702;9.326;2023-12-20T16:11:20;6.40;98.30
7844;DHT22;3967;48.702;9.326;2023-12-20T16:13:47;6.40;98.70
7844;DHT22;3967;48.702;9.326;2023-12-20T16:16:14;6.60;99.00
7844;DHT22;3967;48.702;9.326;2023-12-20T16:18:41;6.50;98.20
7844;DHT22;3967;48.702;9.326;2023-12-20T16:21:08;6.50;98.30
7844;DHT22;3967;48.702;9.326;2023-12-20T16:23:35;6.50;98.40